PRIVATE WETTERSTATION BILLIGHEIM-ALLFELD                       ZURCK
Wetterdaten: Samstag, 07.06.2014
Datum Zeit Temp. A. Temp. A. min Temp. A. max Feuchte A. Luftdruck Regen Wind Richtung Richtung Sonnenschein ET Solar Taupunkt Windchill Windben Empfang
07.06.2014 00:00 15,1 C 15,1 C 15,2 C 77 % 1014,7 hPa 0,0 l/m 0,0 km/h (0 Bft) N-NO 22 0 min 0,025 mm 0 W/m 11,1 C 15,1 C 1,6 km/h (1 Bft) 100 %
07.06.2014 00:10 14,8 C 14,8 C 15,1 C 78 % 1014,7 hPa 0,0 l/m 0,0 km/h (0 Bft) N-NO 22 0 min 0,000 mm 0 W/m 11,0 C 14,8 C 1,6 km/h (1 Bft) 100 %
07.06.2014 00:20 14,6 C 14,6 C 14,8 C 79 % 1014,7 hPa 0,0 l/m 0,0 km/h (0 Bft) N-NO 22 0 min 0,000 mm 0 W/m 11,0 C 14,6 C 4,8 km/h (1 Bft) 100 %
07.06.2014 00:30 14,3 C 14,3 C 14,6 C 80 % 1014,7 hPa 0,0 l/m 0,0 km/h (0 Bft) N 360 0 min 0,000 mm 0 W/m 10,9 C 14,3 C 4,8 km/h (1 Bft) 100 %
07.06.2014 00:40 14,1 C 14,1 C 14,3 C 80 % 1014,9 hPa 0,0 l/m 0,0 km/h (0 Bft) N 360 0 min 0,000 mm 0 W/m 10,7 C 14,1 C 3,2 km/h (1 Bft) 100 %
07.06.2014 00:50 14,0 C 14,0 C 14,1 C 80 % 1014,8 hPa 0,0 l/m 0,0 km/h (0 Bft) N 360 0 min 0,000 mm 0 W/m 10,6 C 14,0 C 1,6 km/h (1 Bft) 99 %
07.06.2014 01:00 13,8 C 13,8 C 14,0 C 81 % 1014,7 hPa 0,0 l/m 0,0 km/h (0 Bft) N 360 0 min 0,025 mm 0 W/m 10,6 C 13,8 C 4,8 km/h (1 Bft) 100 %
07.06.2014 01:10 13,7 C 13,7 C 13,8 C 81 % 1014,7 hPa 0,0 l/m 0,0 km/h (0 Bft) N 360 0 min 0,000 mm 0 W/m 10,5 C 13,7 C 1,6 km/h (1 Bft) 100 %
07.06.2014 01:20 13,6 C 13,6 C 13,7 C 81 % 1014,7 hPa 0,0 l/m 0,0 km/h (0 Bft) N 360 0 min 0,000 mm 0 W/m 10,4 C 13,6 C 4,8 km/h (1 Bft) 99 %
07.06.2014 01:30 13,4 C 13,4 C 13,6 C 82 % 1014,6 hPa 0,0 l/m 0,0 km/h (0 Bft) N 360 0 min 0,000 mm 0 W/m 10,4 C 13,4 C 1,6 km/h (1 Bft) 100 %
07.06.2014 01:40 13,3 C 13,3 C 13,4 C 81 % 1014,6 hPa 0,0 l/m 0,0 km/h (0 Bft) N 360 0 min 0,000 mm 0 W/m 10,1 C 13,3 C 6,4 km/h (2 Bft) 100 %
07.06.2014 01:50 13,2 C 13,2 C 13,3 C 81 % 1014,5 hPa 0,0 l/m 0,0 km/h (0 Bft) N 360 0 min 0,000 mm 0 W/m 10,0 C 13,2 C 1,6 km/h (1 Bft) 100 %
07.06.2014 02:00 13,2 C 13,2 C 13,2 C 81 % 1014,5 hPa 0,0 l/m 0,0 km/h (0 Bft) N 360 0 min 0,025 mm 0 W/m 10,0 C 13,2 C 4,8 km/h (1 Bft) 100 %
07.06.2014 02:10 13,2 C 13,2 C 13,2 C 81 % 1014,7 hPa 0,0 l/m 0,0 km/h (0 Bft) N-NO 22 0 min 0,000 mm 0 W/m 10,0 C 13,2 C 3,2 km/h (1 Bft) 100 %
07.06.2014 02:20 13,1 C 13,1 C 13,2 C 82 % 1014,6 hPa 0,0 l/m 0,0 km/h (0 Bft) N-NO 22 0 min 0,000 mm 0 W/m 10,1 C 13,1 C 1,6 km/h (1 Bft) 99 %
07.06.2014 02:30 12,9 C 12,9 C 13,1 C 82 % 1014,7 hPa 0,0 l/m 0,0 km/h (0 Bft) N-NO 22 0 min 0,000 mm 0 W/m 9,9 C 12,9 C 1,6 km/h (1 Bft) 100 %
07.06.2014 02:40 12,7 C 12,7 C 12,9 C 82 % 1014,7 hPa 0,0 l/m 0,0 km/h (0 Bft) N-NO 22 0 min 0,000 mm 0 W/m 9,7 C 12,7 C 1,6 km/h (1 Bft) 100 %
07.06.2014 02:50 12,6 C 12,6 C 12,7 C 83 % 1014,8 hPa 0,0 l/m 0,0 km/h (0 Bft) N 360 0 min 0,000 mm 0 W/m 9,8 C 12,6 C 1,6 km/h (1 Bft) 100 %
07.06.2014 03:00 12,4 C 12,4 C 12,6 C 83 % 1014,9 hPa 0,0 l/m 0,0 km/h (0 Bft) N 360 0 min 0,025 mm 0 W/m 9,6 C 12,4 C 1,6 km/h (1 Bft) 100 %
07.06.2014 03:10 12,3 C 12,3 C 12,4 C 84 % 1014,7 hPa 0,0 l/m 0,0 km/h (0 Bft) N 360 0 min 0,000 mm 0 W/m 9,7 C 12,3 C 3,2 km/h (1 Bft) 100 %
07.06.2014 03:20 12,1 C 12,1 C 12,3 C 84 % 1014,6 hPa 0,0 l/m 0,0 km/h (0 Bft) N 360 0 min 0,000 mm 0 W/m 9,5 C 12,1 C 3,2 km/h (1 Bft) 100 %
07.06.2014 03:30 11,9 C 11,9 C 12,1 C 84 % 1014,7 hPa 0,0 l/m 0,0 km/h (0 Bft) N 360 0 min 0,000 mm 0 W/m 9,3 C 11,9 C 1,6 km/h (1 Bft) 100 %
07.06.2014 03:40 11,8 C 11,8 C 11,9 C 84 % 1014,7 hPa 0,0 l/m 0,0 km/h (0 Bft) N 360 0 min 0,000 mm 0 W/m 9,2 C 11,8 C 1,6 km/h (1 Bft) 100 %
07.06.2014 03:50 11,7 C 11,7 C 11,8 C 84 % 1014,6 hPa 0,0 l/m 0,0 km/h (0 Bft) N 360 0 min 0,000 mm 0 W/m 9,1 C 11,7 C 1,6 km/h (1 Bft) 100 %
07.06.2014 04:00 11,6 C 11,6 C 11,7 C 85 % 1014,6 hPa 0,0 l/m 0,0 km/h (0 Bft) N 360 0 min 0,000 mm 0 W/m 9,2 C 11,6 C 1,6 km/h (1 Bft) 100 %
07.06.2014 04:10 11,6 C 11,6 C 11,6 C 85 % 1014,6 hPa 0,0 l/m 0,0 km/h (0 Bft) N 360 0 min 0,000 mm 0 W/m 9,2 C 11,6 C 1,6 km/h (1 Bft) 100 %
07.06.2014 04:20 11,5 C 11,5 C 11,6 C 85 % 1014,4 hPa 0,0 l/m 0,0 km/h (0 Bft) N 360 0 min 0,000 mm 0 W/m 9,1 C 11,5 C 1,6 km/h (1 Bft) 100 %
07.06.2014 04:30 11,5 C 11,5 C 11,5 C 85 % 1014,5 hPa 0,0 l/m 0,0 km/h (0 Bft) N 360 0 min 0,000 mm 0 W/m 9,1 C 11,5 C 1,6 km/h (1 Bft) 100 %
07.06.2014 04:40 11,4 C 11,4 C 11,5 C 85 % 1014,6 hPa 0,0 l/m 0,0 km/h (0 Bft) N 360 0 min 0,000 mm 0 W/m 9,0 C 11,4 C 1,6 km/h (1 Bft) 95 %
07.06.2014 04:50 11,3 C 11,3 C 11,4 C 85 % 1014,7 hPa 0,0 l/m 0,0 km/h (0 Bft) N 360 0 min 0,000 mm 0 W/m 8,9 C 11,3 C 1,6 km/h (1 Bft) 88 %
07.06.2014 05:00 11,2 C 11,2 C 11,3 C 85 % 1014,8 hPa 0,0 l/m 0,0 km/h (0 Bft) N 360 0 min 0,000 mm 0 W/m 8,8 C 11,2 C 1,6 km/h (1 Bft) 98 %
07.06.2014 05:10 11,1 C 11,1 C 11,2 C 85 % 1014,7 hPa 0,0 l/m 0,0 km/h (0 Bft) N 360 0 min 0,000 mm 0 W/m 8,7 C 11,1 C 1,6 km/h (1 Bft) 100 %
07.06.2014 05:20 11,1 C 11,1 C 11,1 C 85 % 1014,8 hPa 0,0 l/m 0,0 km/h (0 Bft) N 360 0 min 0,000 mm 0 W/m 8,7 C 11,1 C 1,6 km/h (1 Bft) 100 %
07.06.2014 05:30 11,0 C 11,0 C 11,1 C 85 % 1014,8 hPa 0,0 l/m 0,0 km/h (0 Bft) N 360 0 min 0,000 mm 5 W/m 8,6 C 11,0 C 1,6 km/h (1 Bft) 99 %
07.06.2014 05:40 10,9 C 10,9 C 11,0 C 86 % 1014,7 hPa 0,0 l/m 0,0 km/h (0 Bft) N 360 0 min 0,000 mm 7 W/m 8,7 C 10,9 C 1,6 km/h (1 Bft) 100 %
07.06.2014 05:50 10,8 C 10,8 C 10,9 C 86 % 1014,8 hPa 0,0 l/m 0,0 km/h (0 Bft) N 360 0 min 0,000 mm 11 W/m 8,6 C 10,8 C 1,6 km/h (1 Bft) 99 %
07.06.2014 06:00 10,7 C 10,7 C 10,8 C 86 % 1014,9 hPa 0,0 l/m 0,0 km/h (0 Bft) N 360 0 min 0,000 mm 12 W/m 8,5 C 10,7 C 1,6 km/h (1 Bft) 100 %
07.06.2014 06:10 10,7 C 10,7 C 10,7 C 86 % 1014,9 hPa 0,0 l/m 0,0 km/h (0 Bft) N 360 0 min 0,000 mm 16 W/m 8,5 C 10,7 C 1,6 km/h (1 Bft) 100 %
07.06.2014 06:20 10,7 C 10,7 C 10,8 C 86 % 1015,0 hPa 0,0 l/m 0,0 km/h (0 Bft) N 360 0 min 0,000 mm 18 W/m 8,5 C 10,7 C 1,6 km/h (1 Bft) 100 %
07.06.2014 06:30 10,8 C 10,7 C 10,8 C 86 % 1015,0 hPa 0,0 l/m 0,0 km/h (0 Bft) N 360 0 min 0,000 mm 19 W/m 8,6 C 10,8 C 1,6 km/h (1 Bft) 100 %
07.06.2014 06:40 10,8 C 10,8 C 10,8 C 86 % 1015,0 hPa 0,0 l/m 0,0 km/h (0 Bft) N 0 0 min 0,000 mm 21 W/m 8,6 C 10,8 C 0,0 km/h (0 Bft) 100 %
07.06.2014 06:50 10,9 C 10,8 C 11,0 C 87 % 1015,0 hPa 0,0 l/m 0,0 km/h (0 Bft) N 360 0 min 0,000 mm 23 W/m 8,8 C 10,9 C 1,6 km/h (1 Bft) 100 %
07.06.2014 07:00 11,1 C 11,0 C 11,1 C 87 % 1015,0 hPa 0,0 l/m 0,0 km/h (0 Bft) N 360 0 min 0,000 mm 25 W/m 9,0 C 11,1 C 1,6 km/h (1 Bft) 100 %
07.06.2014 07:10 11,2 C 11,1 C 11,2 C 86 % 1015,1 hPa 0,0 l/m 0,0 km/h (0 Bft) N 360 0 min 0,000 mm 26 W/m 8,9 C 11,2 C 1,6 km/h (1 Bft) 95 %
07.06.2014 07:20 11,5 C 11,2 C 11,5 C 87 % 1015,1 hPa 0,0 l/m 0,0 km/h (0 Bft) N 360 0 min 0,000 mm 28 W/m 9,4 C 11,5 C 1,6 km/h (1 Bft) 100 %
07.06.2014 07:30 11,8 C 11,5 C 11,8 C 86 % 1015,3 hPa 0,0 l/m 0,0 km/h (0 Bft) N 360 0 min 0,000 mm 30 W/m 9,5 C 11,8 C 1,6 km/h (1 Bft) 98 %
07.06.2014 07:40 12,2 C 11,8 C 12,2 C 86 % 1015,4 hPa 0,0 l/m 0,0 km/h (0 Bft) N 360 0 min 0,000 mm 35 W/m 9,9 C 12,2 C 1,6 km/h (1 Bft) 100 %
07.06.2014 07:50 12,5 C 12,2 C 12,5 C 86 % 1015,4 hPa 0,0 l/m 0,0 km/h (0 Bft) N 360 0 min 0,000 mm 35 W/m 10,2 C 12,5 C 1,6 km/h (1 Bft) 96 %
07.06.2014 08:00 12,9 C 12,5 C 12,9 C 86 % 1015,4 hPa 0,0 l/m 0,0 km/h (0 Bft) W 270 0 min 0,025 mm 49 W/m 10,6 C 12,9 C 1,6 km/h (1 Bft) 100 %
07.06.2014 08:10 13,3 C 12,9 C 13,3 C 85 % 1015,3 hPa 0,0 l/m 0,0 km/h (0 Bft) W 270 0 min 0,000 mm 79 W/m 10,8 C 13,3 C 1,6 km/h (1 Bft) 100 %
07.06.2014 08:20 14,1 C 13,3 C 14,1 C 84 % 1015,3 hPa 0,0 l/m 0,0 km/h (0 Bft) W 270 10 min 0,000 mm 371 W/m 11,4 C 14,1 C 1,6 km/h (1 Bft) 100 %
07.06.2014 08:30 15,3 C 14,2 C 15,3 C 82 % 1015,5 hPa 0,0 l/m 0,0 km/h (0 Bft) W 270 10 min 0,000 mm 406 W/m 12,2 C 15,3 C 1,6 km/h (1 Bft) 100 %
07.06.2014 08:40 16,8 C 14,2 C 16,8 C 76 % 1015,6 hPa 0,0 l/m 0,0 km/h (0 Bft) W 273 10 min 0,000 mm 436 W/m 12,5 C 16,8 C 0,0 km/h (0 Bft) 100 %
07.06.2014 08:50 18,3 C 16,8 C 18,3 C 70 % 1015,5 hPa 0,0 l/m 0,0 km/h (0 Bft) W 273 10 min 0,000 mm 466 W/m 12,7 C 18,3 C 0,0 km/h (0 Bft) 100 %
07.06.2014 09:01 19,9 C 18,3 C 19,9 C 65 % 1015,6 hPa 0,0 l/m 0,2 km/h (0 Bft) W-SW 246 11 min 0,154 mm 494 W/m 13,1 C 19,9 C 3,2 km/h (1 Bft) 100 %
07.06.2014 09:10 20,9 C 19,9 C 20,9 C 59 % 1015,7 hPa 0,0 l/m 0,7 km/h (0 Bft) SW 231 9 min 0,000 mm 519 W/m 12,6 C 20,9 C 4,8 km/h (1 Bft) 100 %
07.06.2014 09:20 21,4 C 20,9 C 21,4 C 60 % 1015,7 hPa 0,0 l/m 0,5 km/h (0 Bft) S-SO 167 10 min 0,000 mm 541 W/m 13,3 C 21,4 C 6,4 km/h (2 Bft) 100 %
07.06.2014 09:30 22,0 C 21,4 C 22,0 C 61 % 1015,6 hPa 0,0 l/m 1,5 km/h (1 Bft) S-SW 206 10 min 0,000 mm 568 W/m 14,1 C 22,0 C 8,0 km/h (2 Bft) 100 %
07.06.2014 09:40 22,5 C 22,0 C 22,5 C 58 % 1015,6 hPa 0,0 l/m 1,7 km/h (1 Bft) S 180 10 min 0,000 mm 591 W/m 13,8 C 22,5 C 6,4 km/h (2 Bft) 100 %
07.06.2014 09:50 22,9 C 22,5 C 22,9 C 56 % 1015,5 hPa 0,0 l/m 1,3 km/h (1 Bft) S-SW 205 10 min 0,000 mm 613 W/m 13,6 C 22,9 C 6,4 km/h (2 Bft) 100 %
07.06.2014 10:00 23,4 C 22,9 C 23,4 C 53 % 1015,6 hPa 0,0 l/m 2,3 km/h (1 Bft) S-SO 168 10 min 0,356 mm 636 W/m 13,3 C 23,4 C 8,0 km/h (2 Bft) 100 %
07.06.2014 10:10 23,5 C 23,4 C 23,5 C 56 % 1015,4 hPa 0,0 l/m 0,7 km/h (0 Bft) S-SW 192 10 min 0,000 mm 661 W/m 14,2 C 23,5 C 6,4 km/h (2 Bft) 100 %
07.06.2014 10:20 23,9 C 23,5 C 23,9 C 54 % 1015,4 hPa 0,0 l/m 0,6 km/h (0 Bft) S 180 10 min 0,000 mm 684 W/m 14,0 C 23,9 C 4,8 km/h (1 Bft) 100 %
07.06.2014 10:30 24,2 C 23,9 C 24,2 C 55 % 1015,2 hPa 0,0 l/m 0,8 km/h (0 Bft) S-SO 150 10 min 0,000 mm 705 W/m 14,6 C 24,2 C 6,4 km/h (2 Bft) 100 %
07.06.2014 10:40 25,1 C 24,2 C 25,1 C 55 % 1015,1 hPa 0,0 l/m 1,2 km/h (1 Bft) S-SW 199 10 min 0,000 mm 724 W/m 15,4 C 25,1 C 8,0 km/h (2 Bft) 100 %
07.06.2014 10:50 25,8 C 25,1 C 25,8 C 52 % 1015,1 hPa 0,0 l/m 3,3 km/h (1 Bft) S-SW 204 10 min 0,000 mm 740 W/m 15,2 C 25,8 C 11,3 km/h (2 Bft) 100 %
07.06.2014 11:00 26,0 C 25,8 C 26,1 C 51 % 1015,1 hPa 0,0 l/m 3,1 km/h (1 Bft) S-SW 200 10 min 0,457 mm 758 W/m 15,1 C 26,0 C 9,7 km/h (2 Bft) 100 %
07.06.2014 11:10 26,1 C 26,0 C 26,2 C 50 % 1015,3 hPa 0,0 l/m 1,9 km/h (1 Bft) S 180 10 min 0,000 mm 773 W/m 14,8 C 26,1 C 8,0 km/h (2 Bft) 100 %
07.06.2014 11:20 26,2 C 26,0 C 26,2 C 51 % 1015,3 hPa 0,0 l/m 1,5 km/h (1 Bft) S-SW 212 10 min 0,000 mm 789 W/m 15,2 C 26,2 C 6,4 km/h (2 Bft) 100 %
07.06.2014 11:30 26,8 C 26,2 C 26,8 C 46 % 1015,2 hPa 0,0 l/m 0,6 km/h (0 Bft) SW 214 10 min 0,000 mm 803 W/m 14,2 C 26,8 C 6,4 km/h (2 Bft) 99 %
07.06.2014 11:40 27,3 C 26,8 C 27,3 C 47 % 1015,1 hPa 0,0 l/m 0,6 km/h (0 Bft) W 267 10 min 0,000 mm 816 W/m 15,0 C 27,3 C 4,8 km/h (1 Bft) 100 %
07.06.2014 11:50 27,9 C 27,3 C 27,9 C 44 % 1015,2 hPa 0,0 l/m 0,6 km/h (0 Bft) SW 230 10 min 0,000 mm 828 W/m 14,5 C 27,9 C 4,8 km/h (1 Bft) 100 %
07.06.2014 12:00 28,1 C 27,9 C 28,2 C 43 % 1015,2 hPa 0,0 l/m 0,8 km/h (0 Bft) S-SW 209 10 min 0,534 mm 840 W/m 14,3 C 28,1 C 6,4 km/h (2 Bft) 100 %
07.06.2014 12:10 28,3 C 28,1 C 28,3 C 42 % 1015,2 hPa 0,0 l/m 0,3 km/h (0 Bft) S-SW 209 10 min 0,000 mm 851 W/m 14,1 C 28,3 C 4,8 km/h (1 Bft) 100 %
07.06.2014 12:20 28,6 C 28,3 C 28,6 C 42 % 1015,2 hPa 0,0 l/m 2,1 km/h (1 Bft) S-SW 209 10 min 0,000 mm 860 W/m 14,4 C 28,6 C 9,7 km/h (2 Bft) 100 %
07.06.2014 12:30 28,9 C 28,6 C 28,9 C 43 % 1015,1 hPa 0,0 l/m 0,8 km/h (0 Bft) SW 219 10 min 0,000 mm 865 W/m 15,0 C 28,9 C 6,4 km/h (2 Bft) 100 %
07.06.2014 12:40 28,9 C 28,8 C 28,9 C 43 % 1015,0 hPa 0,0 l/m 3,2 km/h (1 Bft) S-SW 204 10 min 0,000 mm 847 W/m 15,0 C 28,9 C 8,0 km/h (2 Bft) 100 %
07.06.2014 12:50 28,4 C 28,4 C 28,9 C 42 % 1015,1 hPa 0,0 l/m 3,3 km/h (1 Bft) SO 133 10 min 0,000 mm 875 W/m 14,2 C 28,4 C 11,3 km/h (2 Bft) 100 %
07.06.2014 13:00 28,2 C 28,2 C 28,4 C 43 % 1014,9 hPa 0,0 l/m 1,9 km/h (1 Bft) S-SW 202 10 min 0,000 mm 838 W/m 14,4 C 28,2 C 9,7 km/h (2 Bft) 100 %
07.06.2014 13:10 28,3 C 28,2 C 28,4 C 41 % 1014,9 hPa 0,0 l/m 3,3 km/h (1 Bft) O-SO 113 10 min 0,584 mm 865 W/m 13,8 C 28,3 C 9,7 km/h (2 Bft) 100 %
07.06.2014 13:20 28,6 C 28,3 C 28,6 C 42 % 1014,9 hPa 0,0 l/m 5,2 km/h (1 Bft) SW 231 10 min 0,000 mm 893 W/m 14,4 C 28,6 C 16,1 km/h (3 Bft) 100 %
07.06.2014 13:30 28,9 C 28,6 C 28,9 C 41 % 1014,8 hPa 0,0 l/m 5,6 km/h (1 Bft) S-SW 200 10 min 0,000 mm 891 W/m 14,3 C 28,9 C 16,1 km/h (3 Bft) 100 %
07.06.2014 13:40 29,3 C 28,9 C 29,3 C 40 % 1014,7 hPa 0,0 l/m 4,2 km/h (1 Bft) SW 234 10 min 0,000 mm 745 W/m 14,3 C 29,3 C 14,5 km/h (3 Bft) 100 %
07.06.2014 13:50 29,3 C 29,3 C 29,4 C 42 % 1014,7 hPa 0,0 l/m 4,2 km/h (1 Bft) S 186 10 min 0,000 mm 700 W/m 15,0 C 29,3 C 14,5 km/h (3 Bft) 100 %
07.06.2014 14:00 29,4 C 29,2 C 29,4 C 40 % 1014,6 hPa 0,0 l/m 3,5 km/h (1 Bft) W-SW 242 10 min 0,609 mm 902 W/m 14,4 C 29,4 C 14,5 km/h (3 Bft) 99 %
07.06.2014 14:10 29,8 C 29,4 C 29,8 C 40 % 1014,5 hPa 0,0 l/m 4,2 km/h (1 Bft) S-SW 205 10 min 0,000 mm 867 W/m 14,7 C 29,8 C 9,7 km/h (2 Bft) 99 %
07.06.2014 14:20 29,8 C 29,8 C 29,8 C 41 % 1014,4 hPa 0,0 l/m 1,3 km/h (1 Bft) W-SW 256 10 min 0,000 mm 865 W/m 15,1 C 29,8 C 8,0 km/h (2 Bft) 96 %
07.06.2014 14:30 30,3 C 29,8 C 30,3 C 40 % 1014,4 hPa 0,0 l/m 3,7 km/h (1 Bft) S-SW 197 10 min 0,000 mm 854 W/m 15,2 C 30,3 C 14,5 km/h (3 Bft) 98 %
07.06.2014 14:40 30,2 C 30,2 C 30,3 C 38 % 1014,4 hPa 0,0 l/m 3,3 km/h (1 Bft) S-SW 196 10 min 0,000 mm 768 W/m 14,3 C 30,2 C 14,5 km/h (3 Bft) 97 %
07.06.2014 14:50 30,4 C 30,2 C 30,4 C 39 % 1014,4 hPa 0,0 l/m 6,1 km/h (2 Bft) SW 225 10 min 0,000 mm 795 W/m 14,9 C 30,4 C 16,1 km/h (3 Bft) 98 %
07.06.2014 15:00 30,5 C 30,4 C 30,6 C 37 % 1014,4 hPa 0,0 l/m 3,6 km/h (1 Bft) O 81 10 min 0,610 mm 793 W/m 14,1 C 30,5 C 16,1 km/h (3 Bft) 97 %
07.06.2014 15:10 30,7 C 30,5 C 30,7 C 38 % 1014,4 hPa 0,0 l/m 3,1 km/h (1 Bft) S-SW 207 10 min 0,000 mm 789 W/m 14,7 C 30,7 C 9,7 km/h (2 Bft) 97 %
07.06.2014 15:20 31,2 C 30,7 C 31,2 C 36 % 1014,3 hPa 0,0 l/m 1,4 km/h (1 Bft) W 262 10 min 0,000 mm 550 W/m 14,3 C 31,2 C 9,7 km/h (2 Bft) 97 %
07.06.2014 15:30 31,2 C 31,2 C 31,3 C 34 % 1014,3 hPa 0,0 l/m 4,1 km/h (1 Bft) W 259 10 min 0,000 mm 628 W/m 13,4 C 31,2 C 16,1 km/h (3 Bft) 97 %
07.06.2014 15:40 30,9 C 30,9 C 31,2 C 37 % 1014,4 hPa 0,0 l/m 2,1 km/h (1 Bft) SW 229 10 min 0,000 mm 369 W/m 14,5 C 30,9 C 8,0 km/h (2 Bft) 98 %
07.06.2014 15:50 30,3 C 30,3 C 30,9 C 37 % 1014,3 hPa 0,0 l/m 0,3 km/h (0 Bft) S-SW 213 10 min 0,000 mm 385 W/m 14,0 C 30,3 C 4,8 km/h (1 Bft) 97 %
07.06.2014 16:00 29,9 C 29,9 C 30,3 C 36 % 1014,2 hPa 0,0 l/m 0,2 km/h (0 Bft) S-SO 168 10 min 0,406 mm 872 W/m 13,2 C 29,9 C 1,6 km/h (1 Bft) 97 %
07.06.2014 16:10 30,1 C 29,9 C 30,1 C 36 % 1014,3 hPa 0,0 l/m 0,5 km/h (0 Bft) S-SW 199 10 min 0,000 mm 411 W/m 13,4 C 30,1 C 4,8 km/h (1 Bft) 97 %
07.06.2014 16:20 30,4 C 30,1 C 30,4 C 36 % 1014,3 hPa 0,0 l/m 0,4 km/h (0 Bft) SW 219 10 min 0,000 mm 654 W/m 13,6 C 30,4 C 8,0 km/h (2 Bft) 98 %
07.06.2014 16:30 30,5 C 30,4 C 30,6 C 34 % 1014,4 hPa 0,0 l/m 0,2 km/h (0 Bft) SW 224 10 min 0,000 mm 311 W/m 12,8 C 30,5 C 4,8 km/h (1 Bft) 89 %
07.06.2014 16:40 30,4 C 30,3 C 30,5 C 34 % 1014,4 hPa 0,0 l/m 0,2 km/h (0 Bft) SW 219 10 min 0,000 mm 682 W/m 12,7 C 30,4 C 4,8 km/h (1 Bft) 97 %
07.06.2014 16:50 30,6 C 30,4 C 30,6 C 35 % 1014,4 hPa 0,0 l/m 0,2 km/h (0 Bft) W-SW 252 10 min 0,000 mm 462 W/m 13,4 C 30,6 C 4,8 km/h (1 Bft) 98 %
07.06.2014 17:00 30,7 C 30,6 C 30,7 C 36 % 1014,4 hPa 0,0 l/m 0,4 km/h (0 Bft) W-NW 296 10 min 0,280 mm 269 W/m 13,9 C 30,7 C 4,8 km/h (1 Bft) 97 %
07.06.2014 17:10 30,6 C 30,6 C 30,7 C 35 % 1014,4 hPa 0,0 l/m 0,2 km/h (0 Bft) W-NW 287 10 min 0,000 mm 269 W/m 13,4 C 30,6 C 3,2 km/h (1 Bft) 98 %
07.06.2014 17:20 30,4 C 30,4 C 30,6 C 31 % 1014,4 hPa 0,0 l/m 0,2 km/h (0 Bft) W 277 10 min 0,000 mm 322 W/m 11,3 C 30,4 C 4,8 km/h (1 Bft) 97 %
07.06.2014 17:30 29,9 C 29,9 C 30,4 C 38 % 1014,4 hPa 0,0 l/m 0,0 km/h (0 Bft) W-NW 283 10 min 0,000 mm 237 W/m 14,0 C 29,9 C 1,6 km/h (1 Bft) 97 %
07.06.2014 17:40 29,2 C 29,2 C 29,9 C 37 % 1014,4 hPa 0,0 l/m 0,0 km/h (0 Bft) W-NW 283 10 min 0,000 mm 230 W/m 13,0 C 29,2 C 1,6 km/h (1 Bft) 98 %
07.06.2014 17:50 28,4 C 28,4 C 29,2 C 43 % 1014,4 hPa 0,0 l/m 0,0 km/h (0 Bft) W-NW 283 10 min 0,000 mm 195 W/m 14,6 C 28,4 C 1,6 km/h (1 Bft) 98 %
07.06.2014 18:00 27,9 C 27,9 C 28,4 C 49 % 1014,4 hPa 0,0 l/m 0,0 km/h (0 Bft) W-NW 283 10 min 0,178 mm 167 W/m 16,2 C 27,9 C 0,0 km/h (0 Bft) 98 %
07.06.2014 18:10 27,6 C 27,6 C 27,9 C 49 % 1014,4 hPa 0,0 l/m 0,0 km/h (0 Bft) W-NW 283 10 min 0,000 mm 155 W/m 15,9 C 27,6 C 0,0 km/h (0 Bft) 97 %
07.06.2014 18:20 27,0 C 27,0 C 27,6 C 48 % 1014,4 hPa 0,0 l/m 0,0 km/h (0 Bft) W-NW 283 0 min 0,000 mm 123 W/m 15,0 C 27,0 C 0,0 km/h (0 Bft) 97 %
07.06.2014 18:30 26,7 C 26,7 C 27,0 C 48 % 1014,3 hPa 0,0 l/m 0,0 km/h (0 Bft) W-NW 283 0 min 0,000 mm 146 W/m 14,8 C 26,7 C 0,0 km/h (0 Bft) 98 %
07.06.2014 18:40 26,4 C 26,4 C 26,7 C 49 % 1014,3 hPa 0,0 l/m 0,0 km/h (0 Bft) W-NW 283 0 min 0,000 mm 121 W/m 14,8 C 26,4 C 0,0 km/h (0 Bft) 97 %
07.06.2014 18:50 26,3 C 26,2 C 26,4 C 49 % 1014,3 hPa 0,0 l/m 0,0 km/h (0 Bft) W-NW 283 0 min 0,000 mm 111 W/m 14,7 C 26,3 C 0,0 km/h (0 Bft) 98 %
07.06.2014 19:00 26,1 C 26,1 C 26,3 C 53 % 1014,4 hPa 0,0 l/m 0,0 km/h (0 Bft) W-NW 283 0 min 0,101 mm 95 W/m 15,8 C 26,1 C 0,0 km/h (0 Bft) 97 %
07.06.2014 19:10 25,9 C 25,9 C 26,1 C 54 % 1014,4 hPa 0,0 l/m 0,0 km/h (0 Bft) W-NW 283 0 min 0,000 mm 72 W/m 15,9 C 25,9 C 0,0 km/h (0 Bft) 97 %
07.06.2014 19:20 25,7 C 25,7 C 26,0 C 57 % 1014,4 hPa 0,0 l/m 0,0 km/h (0 Bft) W-NW 283 0 min 0,000 mm 74 W/m 16,5 C 25,7 C 0,0 km/h (0 Bft) 97 %
07.06.2014 19:30 25,3 C 25,3 C 25,7 C 57 % 1014,4 hPa 0,0 l/m 0,0 km/h (0 Bft) W-NW 283 0 min 0,000 mm 90 W/m 16,2 C 25,3 C 0,0 km/h (0 Bft) 97 %
07.06.2014 19:40 25,1 C 25,1 C 25,3 C 56 % 1014,4 hPa 0,0 l/m 0,0 km/h (0 Bft) W-NW 283 0 min 0,000 mm 93 W/m 15,7 C 25,1 C 0,0 km/h (0 Bft) 98 %
07.06.2014 19:50 25,1 C 25,1 C 25,1 C 56 % 1014,5 hPa 0,0 l/m 0,0 km/h (0 Bft) W-NW 283 0 min 0,000 mm 81 W/m 15,7 C 25,1 C 0,0 km/h (0 Bft) 97 %
07.06.2014 20:00 25,2 C 25,1 C 25,2 C 55 % 1014,6 hPa 0,0 l/m 0,0 km/h (0 Bft) W-NW 283 0 min 0,000 mm 76 W/m 15,5 C 25,2 C 0,0 km/h (0 Bft) 97 %
07.06.2014 20:10 25,3 C 25,2 C 25,3 C 48 % 1014,7 hPa 0,0 l/m 0,0 km/h (0 Bft) W-NW 283 0 min 0,051 mm 60 W/m 13,5 C 25,3 C 0,0 km/h (0 Bft) 97 %
07.06.2014 20:20 25,3 C 25,3 C 25,3 C 50 % 1014,7 hPa 0,0 l/m 0,0 km/h (0 Bft) W-NW 283 0 min 0,000 mm 69 W/m 14,1 C 25,3 C 0,0 km/h (0 Bft) 97 %
07.06.2014 20:30 25,3 C 25,3 C 25,4 C 48 % 1014,7 hPa 0,0 l/m 0,0 km/h (0 Bft) W-NW 283 0 min 0,000 mm 37 W/m 13,5 C 25,3 C 0,0 km/h (0 Bft) 97 %
07.06.2014 20:40 25,2 C 25,2 C 25,3 C 50 % 1014,9 hPa 0,0 l/m 0,0 km/h (0 Bft) W-NW 283 0 min 0,000 mm 39 W/m 14,0 C 25,2 C 0,0 km/h (0 Bft) 97 %
07.06.2014 20:50 25,0 C 25,0 C 25,2 C 52 % 1014,9 hPa 0,0 l/m 0,0 km/h (0 Bft) W-NW 283 0 min 0,000 mm 11 W/m 14,4 C 25,0 C 0,0 km/h (0 Bft) 97 %
07.06.2014 21:00 24,6 C 24,6 C 25,0 C 52 % 1014,9 hPa 0,0 l/m 0,0 km/h (0 Bft) W-NW 283 0 min 0,025 mm 0 W/m 14,1 C 24,6 C 0,0 km/h (0 Bft) 97 %
07.06.2014 21:10 24,2 C 24,2 C 24,6 C 50 % 1014,9 hPa 0,0 l/m 0,0 km/h (0 Bft) W-NW 292 0 min 0,000 mm 0 W/m 13,1 C 24,2 C 1,6 km/h (1 Bft) 100 %
07.06.2014 21:20 23,8 C 23,8 C 24,2 C 53 % 1014,8 hPa 0,0 l/m 0,0 km/h (0 Bft) N 0 0 min 0,000 mm 0 W/m 13,6 C 23,8 C 0,0 km/h (0 Bft) 100 %
07.06.2014 21:30 23,3 C 23,3 C 23,8 C 54 % 1015,0 hPa 0,0 l/m 0,0 km/h (0 Bft) N 0 0 min 0,000 mm 0 W/m 13,5 C 23,3 C 0,0 km/h (0 Bft) 99 %
07.06.2014 21:40 22,9 C 22,9 C 23,3 C 59 % 1015,0 hPa 0,0 l/m 0,0 km/h (0 Bft) S-SO 157 0 min 0,000 mm 0 W/m 14,5 C 22,9 C 3,2 km/h (1 Bft) 100 %
07.06.2014 21:50 22,3 C 22,3 C 22,9 C 63 % 1015,1 hPa 0,0 l/m 0,0 km/h (0 Bft) S-SO 157 0 min 0,000 mm 0 W/m 14,9 C 22,3 C 1,6 km/h (1 Bft) 99 %
07.06.2014 22:00 21,7 C 21,7 C 22,3 C 62 % 1015,1 hPa 0,0 l/m 0,0 km/h (0 Bft) S-SW 202 0 min 0,000 mm 0 W/m 14,1 C 21,7 C 1,6 km/h (1 Bft) 100 %
07.06.2014 22:10 21,3 C 21,3 C 21,7 C 62 % 1015,2 hPa 0,0 l/m 0,0 km/h (0 Bft) S-SW 202 0 min 0,000 mm 0 W/m 13,7 C 21,3 C 1,6 km/h (1 Bft) 100 %
07.06.2014 22:20 21,0 C 21,0 C 21,3 C 63 % 1015,3 hPa 0,0 l/m 0,0 km/h (0 Bft) S-SW 202 0 min 0,000 mm 0 W/m 13,7 C 21,0 C 1,6 km/h (1 Bft) 100 %
07.06.2014 22:30 20,7 C 20,7 C 20,9 C 67 % 1015,4 hPa 0,0 l/m 0,0 km/h (0 Bft) W-SW 247 0 min 0,000 mm 0 W/m 14,3 C 20,7 C 1,6 km/h (1 Bft) 99 %
07.06.2014 22:40 20,3 C 20,3 C 20,7 C 70 % 1015,5 hPa 0,0 l/m 0,0 km/h (0 Bft) W-SW 247 0 min 0,000 mm 0 W/m 14,6 C 20,3 C 1,6 km/h (1 Bft) 100 %
07.06.2014 22:50 19,9 C 19,9 C 20,3 C 73 % 1015,4 hPa 0,0 l/m 0,0 km/h (0 Bft) W-SW 247 0 min 0,000 mm 0 W/m 14,9 C 19,9 C 1,6 km/h (1 Bft) 100 %
07.06.2014 23:00 19,5 C 19,5 C 19,9 C 74 % 1015,5 hPa 0,0 l/m 0,0 km/h (0 Bft) W-SW 247 0 min 0,025 mm 0 W/m 14,7 C 19,5 C 1,6 km/h (1 Bft) 99 %
07.06.2014 23:10 19,1 C 19,1 C 19,5 C 77 % 1015,6 hPa 0,0 l/m 0,0 km/h (0 Bft) W-SW 247 0 min 0,000 mm 0 W/m 15,0 C 19,1 C 3,2 km/h (1 Bft) 100 %
07.06.2014 23:20 18,8 C 18,8 C 19,1 C 78 % 1015,6 hPa 0,0 l/m 0,0 km/h (0 Bft) W-SW 247 0 min 0,000 mm 0 W/m 14,9 C 18,8 C 1,6 km/h (1 Bft) 100 %
07.06.2014 23:30 18,4 C 18,4 C 18,8 C 80 % 1015,6 hPa 0,0 l/m 0,0 km/h (0 Bft) W-SW 247 0 min 0,000 mm 0 W/m 14,9 C 18,4 C 3,2 km/h (1 Bft) 100 %
07.06.2014 23:40 18,2 C 18,2 C 18,4 C 80 % 1015,6 hPa 0,0 l/m 0,0 km/h (0 Bft) W-SW 247 0 min 0,000 mm 0 W/m 14,7 C 18,2 C 4,8 km/h (1 Bft) 100 %
07.06.2014 23:50 18,1 C 18,1 C 18,2 C 81 % 1015,7 hPa 0,0 l/m 0,0 km/h (0 Bft) NW 315 0 min 0,000 mm 0 W/m 14,8 C 18,1 C 4,8 km/h (1 Bft) 100 %
_ Min-Zeit 06:00 06:00 06:10 17:20 16:00 - 00:00 - - - - - 06:00 06:00 06:40 04:50
Minimum _ 10,7 C 10,7 C 10,7 C 31 % 1014,2 hPa - 0,0 km/h (0 Bft) - - - - - 8,5 C 10,7 C 0,0 km/h (0 Bft) 88 %
_ Max-Zeit 15:30 15:30 15:30 06:50 09:10 00:00 14:50 - - 09:01 15:00 14:00 19:20 15:20 13:20 00:00
Maximum _ 31,3 C 31,2 C 31,3 C 87 % 1015,7 hPa 0,0 l/m 6,1 km/h
SW (2 Bft)
- - 11 min 0,610 mm 902 W/m 16,5 C 31,2 C 16,1 km/h
SW (3 Bft)
100 %
Durchschnitt _ 21,0 C 20,9 C 21,2 C 62 % 1014,9 hPa #0,0 l/m 0,7 km/h (0 Bft) S-SW - #10:00 h #4,495 mm 425 W/m 12,6 C 21,0 C 4,0 km/h (1 Bft) 99 %
PRIVATE WETTERSTATION BILLIGHEIM-ALLFELD - www.neckar-odenwald-wetter.de - Holger Sonntag